Time;durP1;ratioP1;P1;durP2;ratioP2;P2;SDS_P1;SDS_P2;PMS_P1;PMS_P2;Temp;Humidity;BMP_temperature;BMP_pressure;BME280_temperature;BME280_humidity;BME280_pressure;Samples;Min_cycle;Max_cycle;Signal;HPM_P1;HPM_P2
2023/05/14 00:01:01;;;;;;;;;15.00;14.75;;;;;14.96;65.86;102108.38;5049537;28;9521;-65
2023/05/14 00:03:27;;;;;;;;;17.75;16.50;;;;;15.01;65.69;102105.94;5049320;28;9734;-65
2023/05/14 00:05:54;;;;;;;;;20.50;17.00;;;;;15.02;65.44;102099.47;5050415;28;9529;-65
2023/05/14 00:08:20;;;;;;;;;17.50;16.50;;;;;15.00;66.25;102098.81;5050364;28;9602;-65
2023/05/14 00:10:47;;;;;;;;;16.75;16.25;;;;;15.04;65.93;102096.56;5049211;28;9710;-65
2023/05/14 00:13:13;;;;;;;;;14.00;14.00;;;;;15.05;66.04;102085.53;5050536;28;9545;-66
2023/05/14 00:15:40;;;;;;;;;16.00;16.00;;;;;15.05;66.09;102071.97;5050286;28;9596;-65
2023/05/14 00:18:06;;;;;;;;;16.25;14.25;;;;;15.00;65.74;102074.44;5049438;28;9390;-65
2023/05/14 00:20:33;;;;;;;;;14.75;14.75;;;;;14.98;65.92;102073.75;5050497;28;9616;-65
2023/05/14 00:22:59;;;;;;;;;13.00;13.00;;;;;14.98;65.66;102075.63;5046600;28;9624;-65
2023/05/14 00:25:26;;;;;;;;;20.50;16.75;;;;;14.92;66.05;102074.56;5029067;28;9538;-65
2023/05/14 00:27:53;;;;;;;;;19.75;18.25;;;;;14.96;66.01;102065.00;5030258;28;10487;-65
2023/05/14 00:30:19;;;;;;;;;15.50;15.00;;;;;14.95;66.24;102067.88;5029703;28;9652;-65
2023/05/14 00:32:46;;;;;;;;;15.00;15.00;;;;;14.98;66.38;102064.78;5028945;28;9452;-65
2023/05/14 00:35:13;;;;;;;;;16.75;14.50;;;;;14.97;66.17;102060.41;5028384;28;9564;-65
2023/05/14 00:37:39;;;;;;;;;17.50;15.75;;;;;14.95;66.31;102057.03;5025350;28;9525;-65
2023/05/14 00:40:07;;;;;;;;;17.75;17.00;;;;;14.95;66.43;102051.63;5025843;28;9800;-65
2023/05/14 00:42:34;;;;;;;;;21.50;20.00;;;;;14.91;66.23;102048.47;5018069;28;10342;-65
2023/05/14 00:45:00;;;;;;;;;16.50;16.50;;;;;14.83;66.53;102044.03;5045379;28;9676;-65
2023/05/14 00:47:27;;;;;;;;;17.25;15.25;;;;;14.80;66.82;102046.28;5030245;28;9852;-65
2023/05/14 00:49:53;;;;;;;;;21.00;20.50;;;;;14.76;66.29;102053.13;5028887;28;9778;-66
2023/05/14 00:52:20;;;;;;;;;17.75;16.75;;;;;14.70;66.72;102051.16;5030094;28;9935;-65
2023/05/14 00:54:48;;;;;;;;;19.25;18.00;;;;;14.71;66.55;102048.28;5029913;28;9679;-65
2023/05/14 00:57:15;;;;;;;;;22.00;19.75;;;;;14.70;66.41;102045.72;5045424;28;9768;-65
2023/05/14 00:59:41;;;;;;;;;19.50;15.00;;;;;14.67;66.49;102038.84;5045559;28;9843;-65
2023/05/14 01:02:08;;;;;;;;;15.75;12.50;;;;;14.69;66.64;102039.47;5028651;28;9481;-65
2023/05/14 01:04:34;;;;;;;;;17.25;13.50;;;;;14.73;66.46;102043.47;5028641;28;9536;-65
2023/05/14 01:07:36;;;;;;;;;18.00;15.25;;;;;14.76;66.40;102047.69;5048410;28;9680;-65
2023/05/14 01:10:06;;;;;;;;;16.00;16.00;;;;;14.72;66.13;102041.81;5005793;28;9683;-64
2023/05/14 01:12:42;;;;;;;;;14.00;14.00;;;;;14.67;66.52;102041.56;5048996;28;9736;-65
2023/05/14 01:15:22;;;;;;;;;20.00;19.25;;;;;14.62;66.60;102035.84;5048717;28;9670;-65
2023/05/14 01:17:54;;;;;;;;;19.50;17.25;;;;;14.58;66.83;102031.84;5050234;28;9752;-65
2023/05/14 01:20:21;;;;;;;;;14.25;14.25;;;;;14.56;67.03;102040.19;5048298;28;9696;-65
2023/05/14 01:22:48;;;;;;;;;16.25;13.50;;;;;14.61;66.73;102031.47;5032214;28;9709;-65
2023/05/14 01:25:15;;;;;;;;;15.50;15.50;;;;;14.63;66.95;102029.41;5009648;28;9790;-65
2023/05/14 01:27:54;;;;;;;;;16.75;16.75;;;;;14.63;66.93;102028.59;5024868;28;9725;-65
2023/05/14 01:30:27;;;;;;;;;17.00;17.00;;;;;14.60;66.93;102024.38;5008501;28;9677;-65
2023/05/14 01:32:59;;;;;;;;;21.25;17.75;;;;;14.59;67.24;102025.41;5009937;28;9766;-65
2023/05/14 01:35:28;;;;;;;;;17.50;15.50;;;;;14.54;67.44;102014.28;5026876;28;9599;-65
2023/05/14 01:37:58;;;;;;;;;13.75;13.75;;;;;14.54;67.32;102011.56;5048168;28;9582;-64
2023/05/14 01:40:26;;;;;;;;;23.00;20.50;;;;;14.54;67.68;102015.16;5031758;28;9680;-65
2023/05/14 01:42:54;;;;;;;;;20.00;17.25;;;;;14.55;67.38;102018.69;5051649;28;9995;-65
2023/05/14 01:45:21;;;;;;;;;15.25;11.50;;;;;14.54;67.30;102014.28;5051605;28;9784;-65
2023/05/14 01:47:49;;;;;;;;;13.75;10.50;;;;;14.55;67.72;102016.00;5052106;28;9599;-65
2023/05/14 01:50:16;;;;;;;;;17.75;17.00;;;;;14.55;67.72;102013.28;5035437;28;9865;-66
2023/05/14 01:52:42;;;;;;;;;15.50;13.00;;;;;14.50;68.05;102015.69;5037005;28;9953;-66
2023/05/14 01:55:09;;;;;;;;;15.50;14.75;;;;;14.48;67.50;102015.03;5011717;28;9702;-66
2023/05/14 01:57:36;;;;;;;;;20.00;17.25;;;;;14.47;68.16;102013.38;5011765;28;9715;-66
2023/05/14 02:00:03;;;;;;;;;14.50;14.25;;;;;14.45;67.92;102013.53;5011897;28;9725;-66
2023/05/14 02:02:39;;;;;;;;;16.25;15.00;;;;;14.33;68.46;102010.47;5013127;28;10338;-66
2023/05/14 02:05:08;;;;;;;;;19.50;16.25;;;;;14.29;68.32;102021.88;5028171;28;9758;-66
2023/05/14 02:07:34;;;;;;;;;18.25;16.25;;;;;14.28;68.74;102006.69;5016203;28;9698;-66
2023/05/14 02:10:01;;;;;;;;;18.25;18.25;;;;;14.30;68.65;102010.03;5031382;28;10587;-66
2023/05/14 02:12:27;;;;;;;;;17.00;14.00;;;;;14.29;68.70;102008.34;5030959;28;9904;-66
2023/05/14 02:14:54;;;;;;;;;18.50;16.50;;;;;14.25;68.68;102009.75;5032445;28;9563;-66
2023/05/14 02:17:20;;;;;;;;;15.50;15.50;;;;;14.26;69.22;102004.16;5031636;28;9698;-66
2023/05/14 02:19:47;;;;;;;;;23.75;20.00;;;;;14.27;68.57;102005.84;5031322;28;9829;-66
2023/05/14 02:22:14;;;;;;;;;18.25;18.25;;;;;14.24;69.03;101999.97;5050934;28;9772;-66
2023/05/14 02:24:40;;;;;;;;;17.00;17.00;;;;;14.22;69.19;101997.47;5034300;28;9917;-66
2023/05/14 02:27:07;;;;;;;;;17.00;15.75;;;;;14.20;68.60;101994.09;5052491;28;10867;-66
2023/05/14 02:29:33;;;;;;;;;16.25;14.00;;;;;14.16;69.38;101992.78;5051031;28;9767;-66
2023/05/14 02:32:00;;;;;;;;;18.50;16.25;;;;;14.15;69.42;101990.28;5050947;28;9594;-66
2023/05/14 02:34:26;;;;;;;;;17.00;13.50;;;;;14.19;69.51;101989.72;5034238;28;9773;-65
2023/05/14 02:36:53;;;;;;;;;22.25;18.25;;;;;14.21;69.07;101984.91;5034407;28;9836;-66
2023/05/14 02:39:20;;;;;;;;;16.25;14.50;;;;;14.23;69.66;101990.16;5042475;28;9880;-66
2023/05/14 02:41:46;;;;;;;;;14.50;12.50;;;;;14.20;69.80;101990.53;5047466;28;9699;-66
2023/05/14 02:44:13;;;;;;;;;15.50;13.25;;;;;14.18;69.59;101987.16;5043748;28;9622;-66
2023/05/14 02:46:39;;;;;;;;;15.00;15.00;;;;;14.17;69.67;101983.63;5051772;28;9824;-66
2023/05/14 02:49:06;;;;;;;;;17.75;14.75;;;;;14.11;69.72;101981.69;5050506;28;9685;-66
2023/05/14 02:51:32;;;;;;;;;17.50;15.75;;;;;14.06;70.35;101974.16;5049835;28;9631;-66
2023/05/14 02:53:59;;;;;;;;;18.75;16.50;;;;;14.09;70.17;101979.16;5050395;28;9592;-66
2023/05/14 02:56:25;;;;;;;;;19.75;18.00;;;;;14.07;70.27;101981.22;5048763;28;10417;-66
2023/05/14 02:58:52;;;;;;;;;16.25;16.25;;;;;14.07;70.45;101983.09;5050540;28;9781;-66
2023/05/14 03:01:19;;;;;;;;;19.75;19.75;;;;;13.99;70.66;101980.50;5050442;28;9528;-66
2023/05/14 03:03:46;;;;;;;;;15.25;14.00;;;;;13.96;70.79;101980.88;5050469;28;9677;-66
2023/05/14 03:06:16;;;;;;;;;13.00;12.00;;;;;14.00;70.93;101987.59;5051380;28;9630;-66
2023/05/14 03:08:42;;;;;;;;;13.25;10.50;;;;;13.89;71.14;101983.47;5051600;28;9597;-65
2023/05/14 03:11:09;;;;;;;;;16.25;16.25;;;;;13.87;71.61;101982.00;5032702;28;9822;-65
2023/05/14 03:13:35;;;;;;;;;18.75;17.50;;;;;13.83;71.56;101978.84;5050748;28;9883;-65
2023/05/14 03:16:02;;;;;;;;;17.75;16.00;;;;;13.83;71.56;101976.97;5050014;28;9908;-65
2023/05/14 03:18:29;;;;;;;;;19.75;18.50;;;;;13.81;71.58;101970.91;5051447;28;9682;-65
2023/05/14 03:20:56;;;;;;;;;16.75;13.25;;;;;13.82;71.97;101977.16;5049966;28;9952;-65
2023/05/14 03:23:22;;;;;;;;;20.00;16.50;;;;;13.79;71.84;101970.25;5050000;28;9770;-65
2023/05/14 03:25:51;;;;;;;;;16.00;15.25;;;;;13.79;71.96;101966.69;5045833;28;9924;-65
2023/05/14 03:28:17;;;;;;;;;14.00;13.00;;;;;13.86;72.28;101973.06;5031398;28;9846;-65
2023/05/14 03:30:44;;;;;;;;;17.00;17.00;;;;;13.88;71.86;101962.88;5029949;28;9636;-65
2023/05/14 03:33:11;;;;;;;;;18.75;15.00;;;;;13.85;71.66;101974.94;5031285;28;9698;-64
2023/05/14 03:35:38;;;;;;;;;18.25;13.75;;;;;13.84;72.20;101967.81;5031211;28;9633;-65
2023/05/14 03:38:04;;;;;;;;;17.50;17.50;;;;;13.75;72.12;101965.41;5031320;28;9857;-64
2023/05/14 03:40:33;;;;;;;;;24.75;19.75;;;;;13.70;72.22;101962.44;5031083;28;9777;-65
2023/05/14 03:42:59;;;;;;;;;26.00;20.25;;;;;13.66;72.70;101967.38;5032321;28;9919;-65
2023/05/14 03:45:27;;;;;;;;;16.75;16.75;;;;;13.68;72.77;101959.88;5030944;28;9890;-65
2023/05/14 03:47:54;;;;;;;;;19.25;16.25;;;;;13.69;72.98;101961.56;5030959;28;9710;-65
2023/05/14 03:50:24;;;;;;;;;18.00;17.25;;;;;13.65;72.49;101968.38;5029756;28;9789;-65
2023/05/14 03:52:51;;;;;;;;;19.00;17.25;;;;;13.63;73.07;101961.50;5029516;28;9645;-65
2023/05/14 03:55:20;;;;;;;;;17.50;15.75;;;;;13.67;73.09;101958.22;5030619;28;9681;-64
2023/05/14 03:57:47;;;;;;;;;18.75;17.00;;;;;13.72;72.78;101955.78;5030795;28;10023;-65
2023/05/14 04:00:14;;;;;;;;;20.25;18.75;;;;;13.73;72.72;101957.47;5028723;28;9781;-65
2023/05/14 04:02:43;;;;;;;;;22.00;20.50;;;;;13.75;72.99;101950.00;5029131;28;9980;-65
2023/05/14 04:05:10;;;;;;;;;19.50;17.00;;;;;13.77;72.87;101955.22;5028736;28;9936;-65
2023/05/14 04:07:37;;;;;;;;;25.75;21.50;;;;;13.72;72.77;101953.06;5030633;28;9914;-65
2023/05/14 04:10:03;;;;;;;;;20.00;18.00;;;;;13.71;73.26;101959.53;5045894;28;10112;-65
2023/05/14 04:12:32;;;;;;;;;17.75;16.75;;;;;13.71;73.27;101955.97;5061115;23;10052;-63
2023/05/14 04:14:59;;;;;;;;;23.50;19.50;;;;;13.71;73.33;101964.94;5048767;28;10025;-66
2023/05/14 04:17:26;;;;;;;;;20.50;16.75;;;;;13.75;73.57;101954.56;5065374;28;10011;-65
2023/05/14 04:19:53;;;;;;;;;20.75;18.25;;;;;13.77;73.18;101953.38;5049085;28;9935;-65
2023/05/14 04:22:19;;;;;;;;;20.25;18.00;;;;;13.79;73.90;101954.00;5065527;28;10029;-65
2023/05/14 04:24:45;;;;;;;;;15.00;13.00;;;;;13.83;73.54;101951.78;5048653;28;9922;-64
2023/05/14 04:27:20;;;;;;;;;15.25;15.00;;;;;13.83;73.73;101954.47;5050138;28;9832;-66
2023/05/14 04:29:50;;;;;;;;;14.00;14.00;;;;;13.83;73.63;101957.19;5053657;28;9886;-63
2023/05/14 04:32:17;;;;;;;;;12.75;11.75;;;;;13.85;74.03;101950.56;5045392;28;9865;-63
2023/05/14 04:34:43;;;;;;;;;17.75;16.00;;;;;13.89;73.76;101953.69;5030166;28;9740;-63
2023/05/14 04:37:10;;;;;;;;;12.75;10.50;;;;;13.91;73.73;101946.25;5029216;28;9917;-63
2023/05/14 04:39:36;;;;;;;;;13.50;13.50;;;;;13.89;73.97;101953.69;5030081;28;9665;-64
2023/05/14 04:42:03;;;;;;;;;15.50;12.00;;;;;13.85;74.19;101955.97;5030004;28;9535;-64
2023/05/14 04:44:30;;;;;;;;;22.25;18.00;;;;;13.79;74.27;101955.88;5030018;28;10422;-62
2023/05/14 04:46:56;;;;;;;;;12.25;10.75;;;;;13.81;74.49;101960.09;5031526;28;10116;-63
2023/05/14 04:49:22;;;;;;;;;16.50;15.50;;;;;13.81;74.63;101957.38;5030326;28;9859;-65
2023/05/14 04:51:49;;;;;;;;;18.25;17.25;;;;;13.76;74.86;101959.78;5030069;28;9710;-64
2023/05/14 04:54:16;;;;;;;;;17.00;14.25;;;;;13.76;74.98;101964.38;5029740;28;9787;-65
2023/05/14 04:56:42;;;;;;;;;24.00;18.75;;;;;13.75;74.86;101958.13;5029901;28;9859;-64
2023/05/14 04:59:09;;;;;;;;;29.00;26.00;;;;;13.71;74.68;101961.38;5030433;28;10649;-64
2023/05/14 05:01:35;;;;;;;;;23.50;18.00;;;;;13.64;75.10;101955.03;5049764;28;10127;-65
2023/05/14 05:04:02;;;;;;;;;17.75;16.00;;;;;13.66;75.30;101956.53;5048621;28;10012;-64
2023/05/14 05:06:28;;;;;;;;;17.50;13.75;;;;;13.72;75.11;101952.25;5050002;28;9924;-64
2023/05/14 05:08:55;;;;;;;;;10.75;10.75;;;;;13.74;74.98;101963.72;5049907;28;9844;-63
2023/05/14 05:11:21;;;;;;;;;21.50;18.75;;;;;13.68;74.55;101959.06;5049648;28;9968;-65
2023/05/14 05:13:47;;;;;;;;;18.75;16.50;;;;;13.71;74.89;101961.38;5049436;28;10022;-64
2023/05/14 05:16:14;;;;;;;;;19.25;18.25;;;;;13.68;74.70;101967.16;5044406;28;10561;-65
2023/05/14 05:18:43;;;;;;;;;29.00;23.75;;;;;13.65;74.97;101972.94;5016054;28;9948;-65
2023/05/14 05:21:09;;;;;;;;;20.25;19.75;;;;;13.67;75.26;101970.91;5033762;28;10075;-65
2023/05/14 05:23:36;;;;;;;;;19.75;18.00;;;;;13.70;75.25;101974.09;5033623;28;9856;-65
2023/05/14 05:26:02;;;;;;;;;26.50;18.00;;;;;13.73;75.39;101967.44;5032070;28;10638;-65
2023/05/14 05:28:29;;;;;;;;;24.50;21.75;;;;;13.75;75.44;101968.09;5032446;28;10693;-65
2023/05/14 05:30:55;;;;;;;;;27.00;23.00;;;;;13.74;75.31;101961.03;5032535;28;9917;-65
2023/05/14 05:33:22;;;;;;;;;17.50;14.00;;;;;13.79;75.26;101975.66;5050008;28;9777;-64
2023/05/14 05:35:49;;;;;;;;;17.50;15.00;;;;;13.80;75.33;101960.25;5032167;28;9745;-65
2023/05/14 05:38:17;;;;;;;;;21.50;19.75;;;;;13.81;75.27;101984.44;5033602;28;9851;-64
2023/05/14 05:40:43;;;;;;;;;21.00;20.50;;;;;13.83;75.34;101973.41;5033465;28;9983;-64
2023/05/14 05:43:10;;;;;;;;;24.50;18.25;;;;;13.87;75.37;101982.00;5033346;28;9850;-65
2023/05/14 05:45:36;;;;;;;;;16.25;15.75;;;;;13.83;75.59;101981.53;5032046;28;9767;-64
2023/05/14 05:48:03;;;;;;;;;22.25;19.75;;;;;13.85;75.67;101980.34;5033347;28;9752;-64
2023/05/14 05:50:31;;;;;;;;;18.50;18.00;;;;;13.91;75.75;101981.44;5033578;28;10039;-65
2023/05/14 05:52:58;;;;;;;;;23.00;20.50;;;;;13.90;75.12;101970.81;5033107;28;10027;-64
2023/05/14 05:55:24;;;;;;;;;18.25;18.25;;;;;13.94;75.23;101980.22;5032908;28;9923;-64
2023/05/14 05:57:51;;;;;;;;;18.75;17.50;;;;;13.91;74.86;101970.59;5033404;28;9826;-64
2023/05/14 06:00:18;;;;;;;;;18.75;17.75;;;;;13.91;75.48;101976.03;5032112;28;10047;-64
2023/05/14 06:02:45;;;;;;;;;16.75;14.75;;;;;13.97;75.72;101977.97;5038063;28;9848;-62
2023/05/14 06:05:12;;;;;;;;;15.25;15.25;;;;;14.06;75.76;101978.72;5052016;28;9771;-65
2023/05/14 06:07:38;;;;;;;;;22.00;19.00;;;;;14.18;75.15;101981.75;5052877;28;9911;-64
2023/05/14 06:10:05;;;;;;;;;8.25;5.25;;;;;14.25;74.99;101986.22;5052989;28;9797;-64
2023/05/14 06:12:32;;;;;;;;;15.25;13.00;;;;;14.30;74.56;101982.94;5052436;28;9965;-64
2023/05/14 06:14:58;;;;;;;;;18.75;16.75;;;;;14.27;74.45;101978.75;5051466;28;9891;-63
2023/05/14 06:17:25;;;;;;;;;16.25;16.00;;;;;14.31;74.46;101985.47;5052834;28;9864;-65
2023/05/14 06:19:52;;;;;;;;;18.50;16.50;;;;;14.33;74.78;101982.56;5039645;28;9801;-65
2023/05/14 06:22:19;;;;;;;;;22.50;22.50;;;;;14.34;74.23;101963.44;5032391;28;9755;-64
2023/05/14 06:24:46;;;;;;;;;18.50;17.75;;;;;14.42;74.69;101972.44;5014669;28;10046;-64
2023/05/14 06:27:12;;;;;;;;;22.50;20.50;;;;;14.46;74.80;101963.75;5030377;28;9794;-65
2023/05/14 06:29:39;;;;;;;;;19.00;17.75;;;;;14.55;74.64;101970.75;5047982;28;9766;-64
2023/05/14 06:32:06;;;;;;;;;23.00;17.25;;;;;14.56;74.38;101980.56;5047733;28;9698;-65
2023/05/14 06:34:33;;;;;;;;;15.25;15.00;;;;;14.57;73.94;101978.69;5032742;28;9721;-64
2023/05/14 06:37:01;;;;;;;;;18.00;14.00;;;;;14.58;74.10;101973.09;5033485;28;9750;-65
2023/05/14 06:39:28;;;;;;;;;16.25;13.50;;;;;14.62;74.30;101973.53;5032403;28;9865;-64
2023/05/14 06:41:54;;;;;;;;;19.50;18.25;;;;;14.71;73.87;101980.50;5032636;28;9607;-65
2023/05/14 06:44:22;;;;;;;;;17.25;16.25;;;;;14.68;73.87;101969.22;5030634;28;10623;-65
2023/05/14 06:46:48;;;;;;;;;16.75;16.75;;;;;14.68;73.78;101980.88;5032298;28;9774;-65
2023/05/14 06:49:15;;;;;;;;;17.75;17.00;;;;;14.71;74.16;101977.81;5032005;28;9710;-64
2023/05/14 06:51:41;;;;;;;;;19.25;19.00;;;;;14.77;73.68;101976.19;5032194;28;9756;-65
2023/05/14 06:54:08;;;;;;;;;18.00;18.00;;;;;14.78;73.96;101980.56;5031964;28;9975;-65
2023/05/14 06:56:34;;;;;;;;;16.50;15.25;;;;;14.78;73.37;101978.69;5032158;28;9591;-65
2023/05/14 06:59:01;;;;;;;;;15.25;15.25;;;;;14.73;73.86;101973.00;5032201;28;9594;-65
2023/05/14 07:01:28;;;;;;;;;22.00;21.00;;;;;14.76;74.14;101977.22;5033210;28;9590;-65
2023/05/14 07:03:54;;;;;;;;;20.75;17.50;;;;;14.74;73.88;101971.97;5053097;28;10616;-65
2023/05/14 07:06:21;;;;;;;;;19.25;17.00;;;;;14.77;73.86;101985.13;5057425;28;9493;-65
2023/05/14 07:08:48;;;;;;;;;20.25;19.00;;;;;14.70;73.53;101981.53;5082291;28;9619;-64
2023/05/14 07:11:14;;;;;;;;;18.75;17.25;;;;;14.63;73.74;101983.34;5069075;28;9886;-65
2023/05/14 07:13:41;;;;;;;;;20.00;17.50;;;;;14.62;73.69;101978.94;5075020;28;9710;-65
2023/05/14 07:16:11;;;;;;;;;25.75;22.00;;;;;14.62;73.86;101983.53;5051876;28;9762;-64
2023/05/14 07:18:37;;;;;;;;;24.25;22.00;;;;;14.57;73.68;101984.94;5052586;28;9634;-64
2023/05/14 07:21:05;;;;;;;;;17.25;14.00;;;;;14.57;73.37;101993.06;5051732;28;9885;-64
2023/05/14 07:23:34;;;;;;;;;17.25;14.25;;;;;14.54;73.71;101989.91;5050615;28;9771;-63
2023/05/14 07:26:02;;;;;;;;;21.25;18.50;;;;;14.57;73.97;101986.81;5050217;28;9713;-65
2023/05/14 07:28:28;;;;;;;;;17.75;17.50;;;;;14.62;73.93;101980.81;5051917;28;9734;-64
2023/05/14 07:30:55;;;;;;;;;20.00;16.00;;;;;14.70;73.84;101988.81;5050052;28;9595;-64
2023/05/14 07:33:22;;;;;;;;;22.50;18.25;;;;;14.71;73.59;101980.50;5049299;28;10240;-65
2023/05/14 07:35:48;;;;;;;;;20.50;19.25;;;;;14.76;73.61;101977.22;5030883;28;9825;-64
2023/05/14 07:38:15;;;;;;;;;17.50;17.50;;;;;14.82;73.26;101982.69;5031036;28;9861;-63
2023/05/14 07:40:42;;;;;;;;;20.50;17.50;;;;;14.83;72.72;101978.13;5029975;28;9719;-64
2023/05/14 07:43:09;;;;;;;;;19.25;17.75;;;;;14.82;72.37;101981.84;5031191;28;9753;-63
2023/05/14 07:45:37;;;;;;;;;17.75;16.00;;;;;14.83;72.89;101980.84;5029337;28;9694;-64
2023/05/14 07:48:04;;;;;;;;;22.75;19.25;;;;;14.87;72.80;101978.53;5037784;28;9764;-64
2023/05/14 07:50:31;;;;;;;;;18.25;17.50;;;;;14.95;72.61;101964.84;5050792;28;9741;-64
2023/05/14 07:52:58;;;;;;;;;19.00;18.75;;;;;15.05;72.68;101959.94;5050767;28;9762;-64
2023/05/14 07:55:24;;;;;;;;;15.00;12.75;;;;;15.19;72.68;101963.59;5049646;28;9601;-63
2023/05/14 07:57:51;;;;;;;;;14.50;14.50;;;;;15.33;72.09;101968.91;5049708;28;9578;-64
2023/05/14 08:00:18;;;;;;;;;22.25;21.00;;;;;15.31;70.73;101962.00;5050719;28;9450;-63
2023/05/14 08:02:44;;;;;;;;;21.25;18.50;;;;;15.28;70.51;101968.69;5038870;28;9629;-65
2023/05/14 08:05:11;;;;;;;;;14.00;13.00;;;;;15.34;71.34;101962.44;5046231;28;9749;-64
2023/05/14 08:07:38;;;;;;;;;18.50;17.75;;;;;15.44;70.38;101969.41;5029753;28;9697;-65
2023/05/14 08:10:06;;;;;;;;;19.25;19.25;;;;;15.42;70.82;101960.63;5031021;28;9619;-66
2023/05/14 08:12:33;;;;;;;;;19.25;18.00;;;;;15.45;70.67;101955.63;5029224;28;9636;-66
2023/05/14 08:14:59;;;;;;;;;16.75;14.00;;;;;15.50;70.68;101950.44;5031004;28;10091;-65
2023/05/14 08:17:26;;;;;;;;;24.75;22.00;;;;;15.56;70.05;101956.97;5013237;28;9818;-64
2023/05/14 08:19:53;;;;;;;;;18.25;14.75;;;;;15.59;70.59;101954.66;5044860;28;9628;-65
2023/05/14 08:22:20;;;;;;;;;17.67;17.00;;;;;15.71;70.69;101954.97;5029513;28;9541;-65
2023/05/14 08:24:47;;;;;;;;;21.00;19.75;;;;;15.81;70.99;101949.19;5030888;28;9384;-66
2023/05/14 08:27:13;;;;;;;;;23.50;19.50;;;;;15.90;70.14;101949.84;5031217;28;9459;-64
2023/05/14 08:29:40;;;;;;;;;17.67;16.00;;;;;15.93;69.95;101944.84;5031227;28;9563;-65
2023/05/14 08:32:08;;;;;;;;;15.00;15.00;;;;;15.96;69.79;101954.47;5034304;28;9316;-66
2023/05/14 08:34:48;;;;;;;;;2.00;0.00;;;;;15.98;70.48;101949.69;5050341;28;9355;-65
2023/05/14 08:37:24;;;;;;;;;22.00;18.67;;;;;15.98;70.21;101953.22;5051482;28;9300;-65
2023/05/14 08:39:51;;;;;;;;;17.67;17.33;;;;;16.05;70.07;101947.81;5050934;28;9389;-65
2023/05/14 08:42:19;;;;;;;;;24.75;22.25;;;;;15.99;70.55;101954.88;5049876;28;10104;-65
2023/05/14 08:44:52;;;;;;;;;18.25;17.50;;;;;16.05;70.28;101947.81;5050142;28;9579;-65
2023/05/14 08:47:21;;;;;;;;;20.75;18.00;;;;;16.12;69.73;101945.13;5048498;28;10172;-66
2023/05/14 08:49:53;;;;;;;;;15.33;14.00;;;;;16.13;69.52;101944.09;5048573;28;9408;-65
2023/05/14 08:52:21;;;;;;;;;23.00;21.00;;;;;16.08;69.74;101933.81;5065345;28;9405;-66
2023/05/14 08:54:52;;;;;;;;;13.00;13.00;;;;;16.17;69.60;101932.63;5048459;28;9516;-65
2023/05/14 08:57:19;;;;;;;;;21.67;19.00;;;;;16.23;70.08;101937.22;5050441;28;9123;-66
2023/05/14 08:59:46;;;;;;;;;19.00;18.00;;;;;16.24;69.25;101941.59;5048840;28;9324;-65
2023/05/14 09:02:16;;;;;;;;;15.00;15.00;;;;;16.18;69.00;101934.28;5048882;28;9251;-66
2023/05/14 09:04:43;;;;;;;;;18.67;18.33;;;;;16.24;69.17;101928.00;5065172;28;9377;-65
2023/05/14 09:07:10;;;;;;;;;20.00;15.67;;;;;16.29;68.50;101922.00;5050053;28;9337;-65
2023/05/14 09:09:37;;;;;;;;;17.00;14.67;;;;;16.35;68.41;101917.59;5050306;28;9283;-65
2023/05/14 09:12:05;;;;;;;;;22.00;18.33;;;;;16.39;68.27;101918.88;5050005;28;9273;-65
2023/05/14 09:14:32;;;;;;;;;16.33;16.33;;;;;16.38;68.78;101914.47;5049445;28;9166;-64
2023/05/14 09:16:58;;;;;;;;;19.33;17.33;;;;;16.37;68.50;101915.53;5038141;28;9154;-65
2023/05/14 09:19:25;;;;;;;;;15.00;14.33;;;;;16.42;67.92;101919.28;5028522;28;9247;-65
2023/05/14 09:21:56;;;;;;;;;18.67;16.00;;;;;16.48;67.53;101912.19;5029942;28;9132;-65
2023/05/14 09:24:25;;;;;;;;;15.33;14.00;;;;;16.56;67.88;101909.25;5028526;28;9255;-64
2023/05/14 09:26:53;;;;;;;;;18.67;17.00;;;;;16.66;67.14;101901.53;5030207;28;9066;-65
2023/05/14 09:29:20;;;;;;;;;16.67;16.67;;;;;16.71;66.67;101900.91;5030066;28;9150;-65
2023/05/14 09:31:49;;;;;;;;;20.00;17.00;;;;;16.75;66.72;101907.63;5046045;28;9292;-65
2023/05/14 09:34:23;;;;;;;;;17.00;14.67;;;;;16.84;66.54;101908.25;5048282;28;9170;-64
2023/05/14 09:36:53;;;;;;;;;22.00;16.00;;;;;16.94;66.88;101912.25;5049347;28;8986;-64
2023/05/14 09:39:22;;;;;;;;;12.33;12.33;;;;;17.06;66.16;101907.00;5048274;28;9280;-64
2023/05/14 09:41:50;;;;;;;;;15.67;13.33;;;;;17.16;65.96;101906.56;5049552;28;8983;-63
2023/05/14 09:44:18;;;;;;;;;22.33;20.00;;;;;17.16;64.30;101907.38;5044809;28;9000;-64
2023/05/14 09:46:45;;;;;;;;;16.33;16.33;;;;;17.18;64.70;101902.59;5012032;28;9190;-64
2023/05/14 09:49:11;;;;;;;;;22.67;16.67;;;;;17.24;65.01;101903.59;5029751;28;9063;-64
2023/05/14 09:51:38;;;;;;;;;14.67;14.67;;;;;17.34;64.38;101898.56;5029582;28;9009;-64
2023/05/14 09:54:05;;;;;;;;;11.67;11.67;;;;;17.39;64.28;101892.50;5027965;28;8929;-65
2023/05/14 09:56:32;;;;;;;;;14.67;13.67;;;;;17.46;64.42;101898.72;5029366;28;8916;-64
2023/05/14 09:58:59;;;;;;;;;20.67;19.33;;;;;17.49;63.98;101892.84;5029398;28;8986;-64
2023/05/14 10:01:28;;;;;;;;;14.50;12.25;;;;;17.45;64.02;101887.00;5056797;28;9142;-65
2023/05/14 10:03:55;;;;;;;;;15.33;13.00;;;;;17.41;63.64;101884.94;5052651;28;8829;-65
2023/05/14 10:06:25;;;;;;;;;15.75;12.75;;;;;17.38;64.50;101880.78;5051688;28;8935;-65
2023/05/14 10:08:55;;;;;;;;;18.00;18.00;;;;;17.38;63.15;101883.50;5052755;28;8829;-64
2023/05/14 10:11:25;;;;;;;;;14.00;13.00;;;;;17.33;63.69;101883.28;5052587;28;9081;-64
2023/05/14 10:14:17;;;;;;;;;13.00;9.67;;;;;17.39;63.72;101889.78;5073696;22;8960;-67
2023/05/14 10:16:49;;;;;;;;;13.00;13.00;;;;;17.41;62.61;101893.94;5051087;28;8938;-67
2023/05/14 10:19:18;;;;;;;;;13.33;11.33;;;;;17.46;62.34;101879.66;5052584;28;8915;-67
2023/05/14 10:21:51;;;;;;;;;10.25;10.25;;;;;17.55;63.00;101876.50;5050983;28;8999;-67
2023/05/14 10:24:18;;;;;;;;;18.67;16.67;;;;;17.62;62.23;101884.63;5052092;28;8830;-67
2023/05/14 10:26:45;;;;;;;;;17.33;16.00;;;;;17.65;62.24;101886.09;5052385;28;9195;-67
2023/05/14 10:29:12;;;;;;;;;15.00;12.33;;;;;17.67;62.30;101879.41;5052433;28;9004;-67
2023/05/14 10:31:52;;;;;;;;;12.75;11.00;;;;;17.75;62.23;101873.75;5052457;28;9011;-68
2023/05/14 10:34:37;;;;;;;;;11.50;9.00;;;;;17.79;62.69;101869.53;5067288;28;8841;-66
2023/05/14 10:37:06;;;;;;;;;10.75;10.75;;;;;17.87;62.48;101875.78;5052423;28;8873;-66
2023/05/14 10:39:52;;;;;;;;;12.33;12.00;;;;;17.94;62.68;101863.78;5052635;28;8826;-66
2023/05/14 10:42:26;;;;;;;;;15.00;13.25;;;;;17.98;62.72;101856.84;5051172;28;9022;-66
2023/05/14 10:45:00;;;;;;;;;13.25;13.00;;;;;18.04;62.34;101860.59;5050469;28;8842;-68
2023/05/14 10:47:28;;;;;;;;;14.67;14.00;;;;;18.05;61.81;101854.09;5070637;28;8815;-67
2023/05/14 10:49:57;;;;;;;;;13.67;12.00;;;;;17.97;62.74;101854.34;5072083;28;9006;-67
2023/05/14 10:52:25;;;;;;;;;17.00;15.67;;;;;17.94;62.06;101865.66;5071866;28;8933;-67
2023/05/14 10:54:59;;;;;;;;;13.50;12.00;;;;;17.96;62.66;101858.13;5071242;28;8943;-66
2023/05/14 10:57:30;;;;;;;;;13.00;12.00;;;;;18.04;62.81;101855.16;5070441;28;9572;-66
2023/05/14 10:59:59;;;;;;;;;15.67;14.67;;;;;18.19;62.76;101858.41;5071550;28;9071;-66
2023/05/14 11:02:35;;;;;;;;;11.00;11.00;;;;;18.27;62.45;101849.09;5071745;28;8931;-66
2023/05/14 11:05:06;;;;;;;;;13.00;13.00;;;;;18.29;61.94;101849.72;5070016;28;8842;-66
2023/05/14 11:07:38;;;;;;;;;11.75;11.00;;;;;18.28;62.55;101848.06;5070526;28;8947;-66
2023/05/14 11:10:06;;;;;;;;;13.00;11.00;;;;;18.27;62.34;101841.78;5071827;28;8823;-66
2023/05/14 11:12:34;;;;;;;;;14.50;13.00;;;;;18.29;62.18;101847.00;5070076;28;8878;-67
2023/05/14 11:15:04;;;;;;;;;11.00;11.00;;;;;18.30;61.32;101835.03;5070059;28;8919;-66
2023/05/14 11:17:31;;;;;;;;;13.75;13.50;;;;;18.29;61.75;101842.38;5069196;28;8933;-66
2023/05/14 11:19:59;;;;;;;;;14.75;13.00;;;;;18.26;61.91;101839.25;5051601;28;8829;-67